Time;durP1;ratioP1;P1;durP2;ratioP2;P2;SDS_P1;SDS_P2;PMS_P1;PMS_P2;Temp;Humidity;BMP_temperature;BMP_pressure;BME280_temperature;BME280_humidity;BME280_pressure;Samples;Min_cycle;Max_cycle;Signal;HPM_P1;HPM_P2
2022/12/27 00:00:30;;;;;;;0.10;0.10;;;;;;;;;;1723347;28;20201;-73
2022/12/27 00:01:22;;;;;;;0.10;0.10;;;;;;;;;;1723504;28;20531;-73
2022/12/27 00:02:14;;;;;;;0.00;0.00;;;;;;;;;;1720556;28;20489;-73
2022/12/27 00:03:05;;;;;;;0.00;0.00;;;;;;;;;;1720507;28;20478;-73
2022/12/27 00:03:57;;;;;;;0.00;0.00;;;;;;;;;;1724108;28;20207;-73
2022/12/27 00:04:48;;;;;;;0.20;0.20;;;;;;;;;;1721439;28;20216;-72
2022/12/27 00:05:43;;;;;;;0.00;0.00;;;;;;;;;;1722743;28;20641;-73
2022/12/27 00:06:34;;;;;;;0.00;0.00;;;;;;;;;;1722148;28;20541;-73
2022/12/27 00:07:25;;;;;;;0.10;0.10;;;;;;;;;;1718219;28;20212;-73
2022/12/27 00:08:17;;;;;;;0.10;0.10;;;;;;;;;;1721066;28;20235;-73
2022/12/27 00:09:08;;;;;;;0.20;0.20;;;;;;;;;;1722739;28;20242;-73
2022/12/27 00:10:00;;;;;;;0.10;0.10;;;;;;;;;;1722662;28;20220;-73
2022/12/27 00:10:51;;;;;;;0.03;0.03;;;;;;;;;;1722596;28;20208;-73
2022/12/27 00:11:43;;;;;;;0.05;0.05;;;;;;;;;;1718385;28;20635;-73
2022/12/27 00:12:35;;;;;;;0.00;0.00;;;;;;;;;;1717962;28;20216;-73
2022/12/27 00:13:27;;;;;;;0.00;0.00;;;;;;;;;;1722294;28;20601;-72
2022/12/27 00:14:18;;;;;;;0.00;0.00;;;;;;;;;;1722984;28;20932;-73
2022/12/27 00:15:12;;;;;;;0.00;0.00;;;;;;;;;;1725757;28;20626;-73
2022/12/27 00:16:04;;;;;;;0.05;0.05;;;;;;;;;;1720853;28;20213;-73
2022/12/27 00:16:56;;;;;;;0.00;0.00;;;;;;;;;;1718592;28;20201;-72
2022/12/27 00:17:47;;;;;;;0.00;0.00;;;;;;;;;;1718531;28;20209;-72
2022/12/27 00:18:38;;;;;;;0.00;0.00;;;;;;;;;;1723744;28;20575;-73
2022/12/27 00:19:30;;;;;;;0.00;0.00;;;;;;;;;;1720530;28;20205;-73
2022/12/27 00:20:21;;;;;;;0.30;0.30;;;;;;;;;;1724136;28;20212;-73
2022/12/27 00:21:14;;;;;;;0.10;0.10;;;;;;;;;;1720453;28;20204;-72
2022/12/27 00:22:05;;;;;;;0.08;0.08;;;;;;;;;;1723819;28;20382;-72
2022/12/27 00:22:59;;;;;;;0.00;0.00;;;;;;;;;;1718690;28;20213;-72
2022/12/27 00:23:51;;;;;;;0.00;0.00;;;;;;;;;;1723064;28;20212;-73
2022/12/27 00:24:43;;;;;;;0.00;0.00;;;;;;;;;;1724451;28;20641;-73
2022/12/27 00:25:34;;;;;;;0.00;0.00;;;;;;;;;;1724977;28;20231;-73
2022/12/27 00:26:28;;;;;;;0.00;0.00;;;;;;;;;;1718048;28;20205;-74
2022/12/27 00:27:19;;;;;;;0.00;0.00;;;;;;;;;;1720146;28;20208;-73
2022/12/27 00:28:10;;;;;;;0.10;0.10;;;;;;;;;;1720834;28;20205;-74
2022/12/27 00:29:02;;;;;;;0.20;0.20;;;;;;;;;;1722151;28;20228;-74
2022/12/27 00:29:53;;;;;;;0.00;0.00;;;;;;;;;;1722984;28;20244;-74
2022/12/27 00:30:47;;;;;;;0.10;0.10;;;;;;;;;;1722493;28;20205;-73
2022/12/27 00:31:38;;;;;;;0.10;0.10;;;;;;;;;;1722119;28;20278;-74
2022/12/27 00:32:30;;;;;;;0.00;0.00;;;;;;;;;;1718315;28;20641;-74
2022/12/27 00:33:21;;;;;;;0.00;0.00;;;;;;;;;;1721796;28;20216;-74
2022/12/27 00:34:12;;;;;;;0.10;0.10;;;;;;;;;;1721918;28;20208;-73
2022/12/27 00:35:04;;;;;;;0.13;0.13;;;;;;;;;;1725023;28;20274;-74
2022/12/27 00:35:56;;;;;;;0.03;0.03;;;;;;;;;;1722093;28;21316;-72
2022/12/27 00:36:47;;;;;;;0.10;0.10;;;;;;;;;;1719397;28;20236;-72
2022/12/27 00:37:39;;;;;;;0.00;0.00;;;;;;;;;;1717911;28;20906;-72
2022/12/27 00:38:31;;;;;;;0.10;0.10;;;;;;;;;;1722980;28;20212;-72
2022/12/27 00:39:23;;;;;;;0.00;0.00;;;;;;;;;;1721121;28;20554;-72
2022/12/27 00:40:14;;;;;;;0.00;0.00;;;;;;;;;;1723882;28;20269;-72
2022/12/27 00:41:06;;;;;;;0.00;0.00;;;;;;;;;;1720451;28;20235;-72
2022/12/27 00:41:57;;;;;;;0.03;0.03;;;;;;;;;;1718210;28;20323;-72
2022/12/27 00:42:49;;;;;;;0.03;0.03;;;;;;;;;;1719630;28;20323;-72
2022/12/27 00:43:40;;;;;;;0.05;0.05;;;;;;;;;;1723696;28;20263;-72
2022/12/27 00:44:32;;;;;;;0.00;0.00;;;;;;;;;;1721077;28;20586;-72
2022/12/27 00:45:23;;;;;;;0.00;0.00;;;;;;;;;;1724976;28;20208;-72
2022/12/27 00:46:15;;;;;;;0.00;0.00;;;;;;;;;;1719359;28;20208;-73
2022/12/27 00:47:07;;;;;;;0.10;0.10;;;;;;;;;;1724957;28;20678;-74
2022/12/27 00:47:58;;;;;;;0.00;0.00;;;;;;;;;;1719189;28;20225;-74
2022/12/27 00:48:50;;;;;;;0.10;0.10;;;;;;;;;;1721218;28;20248;-73
2022/12/27 00:49:41;;;;;;;0.05;0.05;;;;;;;;;;1721403;28;20319;-73
2022/12/27 00:50:33;;;;;;;0.00;0.00;;;;;;;;;;1725057;28;20207;-73
2022/12/27 00:51:25;;;;;;;0.10;0.10;;;;;;;;;;1721275;28;20698;-73
2022/12/27 00:52:17;;;;;;;0.00;0.00;;;;;;;;;;1719064;28;20204;-72
2022/12/27 00:53:08;;;;;;;0.22;0.22;;;;;;;;;;1726050;28;20205;-72
2022/12/27 00:54:00;;;;;;;0.00;0.00;;;;;;;;;;1722886;28;20656;-72
2022/12/27 00:54:51;;;;;;;0.00;0.00;;;;;;;;;;1723286;28;20209;-72
2022/12/27 00:55:44;;;;;;;0.20;0.20;;;;;;;;;;1723255;28;20271;-72
2022/12/27 00:56:35;;;;;;;0.00;0.00;;;;;;;;;;1720374;28;20216;-72
2022/12/27 00:57:26;;;;;;;0.10;0.10;;;;;;;;;;1719880;28;20220;-72
2022/12/27 00:58:17;;;;;;;0.13;0.13;;;;;;;;;;1725454;28;20265;-72
2022/12/27 00:59:12;;;;;;;0.10;0.10;;;;;;;;;;1723694;28;20459;-72
2022/12/27 01:00:06;;;;;;;0.10;0.10;;;;;;;;;;1725599;28;20609;-72
2022/12/27 01:01:05;;;;;;;0.00;0.00;;;;;;;;;;1722449;28;20328;-73
2022/12/27 01:01:58;;;;;;;0.00;0.00;;;;;;;;;;1719722;28;20205;-74
2022/12/27 01:02:50;;;;;;;0.03;0.03;;;;;;;;;;1724903;28;20212;-73
2022/12/27 01:03:41;;;;;;;0.10;0.10;;;;;;;;;;1724256;28;20208;-73
2022/12/27 01:04:33;;;;;;;0.00;0.00;;;;;;;;;;1721040;28;20697;-74
2022/12/27 01:05:24;;;;;;;0.00;0.00;;;;;;;;;;1724154;28;20539;-74
2022/12/27 01:06:17;;;;;;;0.00;0.00;;;;;;;;;;1723543;28;20219;-74
2022/12/27 01:07:08;;;;;;;0.15;0.15;;;;;;;;;;1721790;28;20535;-74
2022/12/27 01:08:00;;;;;;;0.00;0.00;;;;;;;;;;1719096;28;20271;-74
2022/12/27 01:08:52;;;;;;;0.00;0.00;;;;;;;;;;1723413;28;20589;-74
2022/12/27 01:09:43;;;;;;;0.00;0.00;;;;;;;;;;1724885;28;20269;-73
2022/12/27 01:10:36;;;;;;;0.00;0.00;;;;;;;;;;1725533;28;20204;-74
2022/12/27 01:11:28;;;;;;;0.00;0.00;;;;;;;;;;1723651;28;20242;-74
2022/12/27 01:12:19;;;;;;;0.00;0.00;;;;;;;;;;1720300;28;20657;-73
2022/12/27 01:13:10;;;;;;;0.10;0.10;;;;;;;;;;1721232;28;20494;-72
2022/12/27 01:14:03;;;;;;;0.10;0.10;;;;;;;;;;1723667;28;20212;-72
2022/12/27 01:14:54;;;;;;;0.00;0.00;;;;;;;;;;1725116;28;20630;-72
2022/12/27 01:15:46;;;;;;;0.03;0.03;;;;;;;;;;1724775;28;20197;-72
2022/12/27 01:16:39;;;;;;;0.00;0.00;;;;;;;;;;1725105;28;20212;-72
2022/12/27 01:17:32;;;;;;;0.00;0.00;;;;;;;;;;1725101;28;20415;-72
2022/12/27 01:18:23;;;;;;;0.10;0.10;;;;;;;;;;1725232;28;20216;-72
2022/12/27 01:19:15;;;;;;;0.00;0.00;;;;;;;;;;1722117;28;20263;-73
2022/12/27 01:20:07;;;;;;;0.00;0.00;;;;;;;;;;1721858;28;20307;-73
2022/12/27 01:20:58;;;;;;;0.00;0.00;;;;;;;;;;1720884;28;20647;-74
2022/12/27 01:21:50;;;;;;;0.00;0.00;;;;;;;;;;1718919;28;20713;-74
2022/12/27 01:22:41;;;;;;;0.00;0.00;;;;;;;;;;1718368;28;20305;-74
2022/12/27 01:23:33;;;;;;;0.00;0.00;;;;;;;;;;1723619;28;20224;-73
2022/12/27 01:24:24;;;;;;;0.00;0.00;;;;;;;;;;1721347;28;20716;-73
2022/12/27 01:25:16;;;;;;;0.20;0.20;;;;;;;;;;1725111;28;20216;-74
2022/12/27 01:26:09;;;;;;;0.10;0.10;;;;;;;;;;1722627;28;20842;-74
2022/12/27 01:27:01;;;;;;;0.00;0.00;;;;;;;;;;1723963;28;20243;-74
2022/12/27 01:27:52;;;;;;;0.00;0.00;;;;;;;;;;1721672;28;20731;-74
2022/12/27 01:28:45;;;;;;;0.10;0.10;;;;;;;;;;1726275;28;20571;-73
2022/12/27 01:29:36;;;;;;;0.00;0.00;;;;;;;;;;1723936;28;20258;-73
2022/12/27 01:30:28;;;;;;;0.00;0.00;;;;;;;;;;1726971;28;20205;-73
2022/12/27 01:31:20;;;;;;;0.00;0.00;;;;;;;;;;1720915;28;20250;-73
2022/12/27 01:32:12;;;;;;;0.00;0.00;;;;;;;;;;1724683;28;20207;-73
2022/12/27 01:33:04;;;;;;;0.17;0.17;;;;;;;;;;1725845;28;20273;-73
2022/12/27 01:33:57;;;;;;;0.10;0.10;;;;;;;;;;1725857;28;20208;-73
2022/12/27 01:34:49;;;;;;;0.00;0.00;;;;;;;;;;1721828;28;20597;-73
2022/12/27 01:35:41;;;;;;;0.10;0.10;;;;;;;;;;1723617;28;20205;-72
2022/12/27 01:36:32;;;;;;;0.10;0.10;;;;;;;;;;1723467;28;20694;-72
2022/12/27 01:37:24;;;;;;;0.13;0.13;;;;;;;;;;1724836;28;20649;-72
2022/12/27 01:38:15;;;;;;;0.10;0.10;;;;;;;;;;1724246;28;20271;-72
2022/12/27 01:39:07;;;;;;;0.20;0.20;;;;;;;;;;1723487;28;20197;-72
2022/12/27 01:39:58;;;;;;;0.00;0.00;;;;;;;;;;1726574;28;20218;-72
2022/12/27 01:40:49;;;;;;;0.00;0.00;;;;;;;;;;1724638;28;20810;-72
2022/12/27 01:43:06;;;;;;;0.20;0.20;;;;;;;;;;1697219;29;20271;-73
2022/12/27 01:43:57;;;;;;;0.20;0.20;;;;;;;;;;1696998;29;20617;-74
2022/12/27 01:44:55;;;;;;;0.30;0.30;;;;;;;;;;1698753;29;20202;-73
2022/12/27 01:45:48;;;;;;;0.10;0.10;;;;;;;;;;1696239;29;20319;-73
2022/12/27 01:46:39;;;;;;;0.13;0.13;;;;;;;;;;1695570;29;20620;-74
2022/12/27 01:47:37;;;;;;;0.10;0.10;;;;;;;;;;1697011;29;20215;-74
2022/12/27 01:48:30;;;;;;;0.00;0.00;;;;;;;;;;1699046;29;20657;-74
2022/12/27 01:49:22;;;;;;;0.03;0.03;;;;;;;;;;1722496;28;20205;-74
2022/12/27 01:50:15;;;;;;;0.10;0.10;;;;;;;;;;1726982;28;20266;-74
2022/12/27 01:51:07;;;;;;;0.30;0.30;;;;;;;;;;1724226;28;20231;-73
2022/12/27 01:51:59;;;;;;;0.10;0.10;;;;;;;;;;1725932;28;20224;-72
2022/12/27 01:52:53;;;;;;;0.10;0.10;;;;;;;;;;1720081;28;20662;-72
2022/12/27 01:53:46;;;;;;;0.10;0.10;;;;;;;;;;1726129;28;20212;-72
2022/12/27 01:54:39;;;;;;;0.10;0.10;;;;;;;;;;1723285;28;20270;-72
2022/12/27 01:55:32;;;;;;;0.00;0.00;;;;;;;;;;1725003;28;20717;-72
2022/12/27 01:56:27;;;;;;;0.10;0.10;;;;;;;;;;1725558;28;20208;-72
2022/12/27 01:57:18;;;;;;;0.20;0.20;;;;;;;;;;1722336;28;20209;-72
2022/12/27 01:58:11;;;;;;;0.00;0.00;;;;;;;;;;1722896;28;20643;-72
2022/12/27 01:59:05;;;;;;;0.20;0.20;;;;;;;;;;1723607;28;20205;-72
2022/12/27 01:59:56;;;;;;;0.00;0.00;;;;;;;;;;1723492;28;20213;-72
2022/12/27 02:00:49;;;;;;;0.05;0.05;;;;;;;;;;1722367;28;20214;-72
2022/12/27 02:01:42;;;;;;;0.00;0.00;;;;;;;;;;1725625;28;20204;-72
2022/12/27 02:02:34;;;;;;;0.05;0.05;;;;;;;;;;1723866;28;20291;-72
2022/12/27 02:03:28;;;;;;;0.15;0.15;;;;;;;;;;1726247;28;20212;-72
2022/12/27 02:04:21;;;;;;;0.20;0.20;;;;;;;;;;1722323;28;20295;-72
2022/12/27 02:05:14;;;;;;;0.00;0.00;;;;;;;;;;1721907;28;20311;-72
2022/12/27 02:06:07;;;;;;;0.00;0.00;;;;;;;;;;1721802;28;20445;-72
2022/12/27 02:06:58;;;;;;;0.05;0.05;;;;;;;;;;1725049;28;20289;-72
2022/12/27 02:07:58;;;;;;;0.17;0.17;;;;;;;;;;1721984;28;20649;-72
2022/12/27 02:08:53;;;;;;;0.20;0.20;;;;;;;;;;1722016;28;20290;-72
2022/12/27 02:09:45;;;;;;;0.08;0.08;;;;;;;;;;1724706;28;20228;-72
2022/12/27 02:10:36;;;;;;;0.05;0.05;;;;;;;;;;1722159;28;20626;-72
2022/12/27 02:12:39;;;;;;;0.10;0.10;;;;;;;;;;1723320;28;20251;-72
2022/12/27 02:13:32;;;;;;;0.05;0.05;;;;;;;;;;1726475;28;20646;-72
2022/12/27 02:14:26;;;;;;;0.10;0.10;;;;;;;;;;1722801;28;20243;-72
2022/12/27 02:15:17;;;;;;;0.00;0.00;;;;;;;;;;1726641;28;20208;-72
2022/12/27 02:16:13;;;;;;;0.03;0.03;;;;;;;;;;1724249;28;20270;-72
2022/12/27 02:17:04;;;;;;;0.00;0.00;;;;;;;;;;1726044;28;20216;-72
2022/12/27 02:17:56;;;;;;;0.10;0.10;;;;;;;;;;1721075;28;20488;-72
2022/12/27 02:18:48;;;;;;;0.20;0.20;;;;;;;;;;1725644;28;20272;-72
2022/12/27 02:19:46;;;;;;;0.00;0.00;;;;;;;;;;1722886;28;20567;-72
2022/12/27 02:20:42;;;;;;;0.10;0.10;;;;;;;;;;1720393;28;20259;-72
2022/12/27 02:21:45;;;;;;;0.00;0.00;;;;;;;;;;1726042;28;20295;-72
2022/12/27 02:24:13;;;;;;;0.00;0.00;;;;;;;;;;1724639;28;20272;-72
2022/12/27 02:25:15;;;;;;;0.00;0.00;;;;;;;;;;1722271;28;20209;-72
2022/12/27 02:26:24;;;;;;;0.20;0.20;;;;;;;;;;1723146;28;20232;-72
2022/12/27 02:27:22;;;;;;;0.00;0.00;;;;;;;;;;1723377;28;20201;-72
2022/12/27 02:28:20;;;;;;;0.00;0.00;;;;;;;;;;1725903;28;20288;-72
2022/12/27 02:29:17;;;;;;;0.05;0.05;;;;;;;;;;1722303;28;20204;-72
2022/12/27 02:30:12;;;;;;;0.00;0.00;;;;;;;;;;1724821;28;20270;-72
2022/12/27 02:31:04;;;;;;;0.10;0.10;;;;;;;;;;1723337;28;20215;-74
2022/12/27 02:31:59;;;;;;;0.10;0.10;;;;;;;;;;1726074;28;20287;-73
2022/12/27 02:32:54;;;;;;;0.00;0.00;;;;;;;;;;1719701;28;20212;-73
2022/12/27 02:33:48;;;;;;;0.00;0.00;;;;;;;;;;1725298;28;20274;-73
2022/12/27 02:34:43;;;;;;;0.05;0.05;;;;;;;;;;1722592;28;20231;-73
2022/12/27 02:35:36;;;;;;;0.00;0.00;;;;;;;;;;1719602;28;20594;-73
2022/12/27 02:36:30;;;;;;;0.10;0.10;;;;;;;;;;1720256;28;20240;-73
2022/12/27 02:37:23;;;;;;;0.20;0.20;;;;;;;;;;1722778;28;20235;-73
2022/12/27 02:38:17;;;;;;;0.00;0.00;;;;;;;;;;1719218;28;20208;-73
2022/12/27 02:39:08;;;;;;;0.00;0.00;;;;;;;;;;1725652;28;20213;-73
2022/12/27 02:53:13;;;;;;;0.30;0.30;;;;;;;;;;1725408;28;20282;-73
2022/12/27 02:54:09;;;;;;;0.20;0.20;;;;;;;;;;1722629;28;20217;-72
2022/12/27 02:55:22;;;;;;;0.10;0.10;;;;;;;;;;1724736;28;20205;-72
2022/12/27 02:57:31;;;;;;;0.10;0.10;;;;;;;;;;1721769;28;20195;-74
2022/12/27 02:58:26;;;;;;;0.20;0.20;;;;;;;;;;1722565;28;20212;-74
2022/12/27 02:59:22;;;;;;;0.00;0.00;;;;;;;;;;1723364;28;20721;-74
2022/12/27 03:04:07;;;;;;;0.10;0.10;;;;;;;;;;1725419;28;20281;-72
2022/12/27 03:05:05;;;;;;;0.10;0.10;;;;;;;;;;1725365;28;20704;-72
2022/12/27 03:07:35;;;;;;;0.00;0.00;;;;;;;;;;1713180;28;20243;-73
2022/12/27 03:08:30;;;;;;;0.00;0.00;;;;;;;;;;1726066;28;20213;-74
2022/12/27 03:15:56;;;;;;;0.10;0.10;;;;;;;;;;1723608;28;20208;-72
2022/12/27 03:16:54;;;;;;;0.40;0.40;;;;;;;;;;1726044;28;20208;-72
2022/12/27 03:17:51;;;;;;;0.15;0.15;;;;;;;;;;1721174;28;20201;-72
2022/12/27 03:19:00;;;;;;;0.10;0.10;;;;;;;;;;1725458;28;20216;-72
2022/12/27 03:26:03;;;;;;;0.00;0.00;;;;;;;;;;1701464;28;20281;-72
2022/12/27 03:26:54;;;;;;;0.00;0.00;;;;;;;;;;1704413;28;20211;-73
2022/12/27 03:33:11;;;;;;;0.05;0.05;;;;;;;;;;1720192;28;20233;-73
2022/12/27 03:34:03;;;;;;;0.00;0.00;;;;;;;;;;1721912;28;20291;-73
2022/12/27 03:34:55;;;;;;;0.10;0.10;;;;;;;;;;1723013;28;20204;-73
2022/12/27 03:38:11;;;;;;;0.00;0.00;;;;;;;;;;1721197;28;20212;-73
2022/12/27 03:39:05;;;;;;;0.10;0.10;;;;;;;;;;1723052;28;20209;-72
2022/12/27 03:40:03;;;;;;;0.00;0.00;;;;;;;;;;1723004;28;20213;-72
2022/12/27 03:43:19;;;;;;;0.10;0.10;;;;;;;;;;1726153;28;20240;-73
2022/12/27 03:44:23;;;;;;;0.00;0.00;;;;;;;;;;1723123;28;20273;-73
2022/12/27 03:45:15;;;;;;;0.00;0.00;;;;;;;;;;1724842;28;20875;-73
2022/12/27 03:47:27;;;;;;;0.10;0.10;;;;;;;;;;1721547;28;20449;-72
2022/12/27 03:48:22;;;;;;;0.20;0.20;;;;;;;;;;1720379;28;20581;-72
2022/12/27 03:49:20;;;;;;;0.15;0.15;;;;;;;;;;1721279;28;20209;-72
2022/12/27 03:50:15;;;;;;;0.10;0.10;;;;;;;;;;1723340;28;20214;-72
2022/12/27 03:51:08;;;;;;;0.10;0.10;;;;;;;;;;1723444;28;20662;-73
2022/12/27 03:52:03;;;;;;;0.10;0.10;;;;;;;;;;1725550;28;20277;-73
2022/12/27 03:52:57;;;;;;;0.10;0.10;;;;;;;;;;1720408;28;20213;-73
2022/12/27 03:53:51;;;;;;;0.00;0.00;;;;;;;;;;1721047;28;20703;-73
2022/12/27 03:54:44;;;;;;;0.10;0.10;;;;;;;;;;1723893;28;20208;-73
2022/12/27 03:55:36;;;;;;;0.03;0.03;;;;;;;;;;1721147;28;20212;-73
2022/12/27 03:56:28;;;;;;;0.00;0.00;;;;;;;;;;1724868;28;20692;-72
2022/12/27 03:57:21;;;;;;;0.00;0.00;;;;;;;;;;1725099;28;20212;-72
2022/12/27 03:58:13;;;;;;;0.00;0.00;;;;;;;;;;1722310;28;20283;-72
2022/12/27 03:59:04;;;;;;;0.10;0.10;;;;;;;;;;1724233;28;20456;-72
2022/12/27 03:59:56;;;;;;;0.08;0.08;;;;;;;;;;1720886;28;20215;-72
2022/12/27 04:00:47;;;;;;;0.00;0.00;;;;;;;;;;1719778;28;20680;-72
2022/12/27 04:01:41;;;;;;;0.00;0.00;;;;;;;;;;1722001;28;20227;-72
2022/12/27 04:02:33;;;;;;;0.00;0.00;;;;;;;;;;1722795;28;20238;-72
2022/12/27 04:03:25;;;;;;;0.10;0.10;;;;;;;;;;1726263;28;20200;-72
2022/12/27 04:04:16;;;;;;;0.00;0.00;;;;;;;;;;1723528;28;20230;-72
2022/12/27 04:05:09;;;;;;;0.00;0.00;;;;;;;;;;1726751;28;20545;-72
2022/12/27 04:06:00;;;;;;;0.10;0.10;;;;;;;;;;1724903;28;20212;-73
2022/12/27 04:06:51;;;;;;;0.00;0.00;;;;;;;;;;1726505;28;20220;-73
2022/12/27 04:34:40;;;;;;;0.10;0.10;;;;;;;;;;1722167;28;20721;-72
2022/12/27 04:35:31;;;;;;;0.00;0.00;;;;;;;;;;1725936;28;20212;-72
2022/12/27 04:36:23;;;;;;;0.10;0.10;;;;;;;;;;1719659;28;20320;-72
2022/12/27 04:37:15;;;;;;;0.00;0.00;;;;;;;;;;1724162;28;20200;-72
2022/12/27 04:38:07;;;;;;;0.00;0.00;;;;;;;;;;1721464;28;20303;-73
2022/12/27 04:38:59;;;;;;;0.10;0.10;;;;;;;;;;1725047;28;20251;-72
2022/12/27 04:55:18;;;;;;;0.00;0.00;;;;;;;;;;1724267;28;20724;-72
2022/12/27 04:56:09;;;;;;;0.00;0.00;;;;;;;;;;1724479;28;20220;-72
2022/12/27 04:57:01;;;;;;;0.00;0.00;;;;;;;;;;1720388;28;20205;-72
2022/12/27 04:57:52;;;;;;;0.00;0.00;;;;;;;;;;1720020;28;20244;-72
2022/12/27 05:02:12;;;;;;;0.10;0.10;;;;;;;;;;1728540;28;20266;-72
2022/12/27 05:03:04;;;;;;;0.08;0.08;;;;;;;;;;1721912;28;20220;-72
2022/12/27 05:03:56;;;;;;;0.00;0.00;;;;;;;;;;1725784;28;20239;-72
2022/12/27 05:04:49;;;;;;;0.00;0.00;;;;;;;;;;1723759;28;20249;-72
2022/12/27 05:05:41;;;;;;;0.00;0.00;;;;;;;;;;1721369;28;20213;-72
2022/12/27 05:06:33;;;;;;;0.00;0.00;;;;;;;;;;1725710;28;20208;-72
2022/12/27 05:14:23;;;;;;;0.10;0.10;;;;;;;;;;1724901;28;20537;-73
2022/12/27 05:15:14;;;;;;;0.10;0.10;;;;;;;;;;1727054;28;20212;-74
2022/12/27 05:16:07;;;;;;;0.00;0.00;;;;;;;;;;1722166;28;20730;-73
2022/12/27 05:16:58;;;;;;;0.00;0.00;;;;;;;;;;1725501;28;20281;-73
2022/12/27 05:17:50;;;;;;;0.10;0.10;;;;;;;;;;1724908;28;20209;-73
2022/12/27 05:18:41;;;;;;;0.10;0.10;;;;;;;;;;1726615;28;20507;-73
2022/12/27 05:19:33;;;;;;;0.10;0.10;;;;;;;;;;1721533;28;20212;-73
2022/12/27 05:20:25;;;;;;;0.10;0.10;;;;;;;;;;1726827;28;20208;-73
2022/12/27 05:21:17;;;;;;;0.10;0.10;;;;;;;;;;1720879;28;20220;-72
2022/12/27 05:25:39;;;;;;;0.10;0.10;;;;;;;;;;1720922;28;20181;-72
2022/12/27 05:26:32;;;;;;;0.10;0.10;;;;;;;;;;1725872;28;20614;-72
2022/12/27 05:27:23;;;;;;;0.10;0.10;;;;;;;;;;1725850;28;20307;-72
2022/12/27 05:28:14;;;;;;;0.00;0.00;;;;;;;;;;1726351;28;20207;-72
2022/12/27 05:29:07;;;;;;;0.00;0.00;;;;;;;;;;1722770;28;20216;-72
2022/12/27 05:29:58;;;;;;;0.10;0.10;;;;;;;;;;1724111;28;20217;-72
2022/12/27 05:30:49;;;;;;;0.00;0.00;;;;;;;;;;1726151;28;20208;-72
2022/12/27 05:31:41;;;;;;;0.10;0.10;;;;;;;;;;1726761;28;20207;-72
2022/12/27 05:32:32;;;;;;;0.00;0.00;;;;;;;;;;1723350;28;20836;-72
2022/12/27 05:33:23;;;;;;;0.00;0.00;;;;;;;;;;1723880;28;20227;-72
2022/12/27 05:34:15;;;;;;;0.10;0.10;;;;;;;;;;1725200;28;20212;-72
2022/12/27 05:35:06;;;;;;;0.00;0.00;;;;;;;;;;1725561;28;20216;-72
2022/12/27 05:36:00;;;;;;;0.00;0.00;;;;;;;;;;1724554;28;20538;-72
2022/12/27 05:36:51;;;;;;;0.00;0.00;;;;;;;;;;1724000;28;20228;-72
2022/12/27 05:37:43;;;;;;;0.00;0.00;;;;;;;;;;1722733;28;20666;-72
2022/12/27 05:38:34;;;;;;;0.10;0.10;;;;;;;;;;1724572;28;20200;-72
2022/12/27 05:39:26;;;;;;;0.00;0.00;;;;;;;;;;1720768;28;20635;-72
2022/12/27 05:40:17;;;;;;;0.00;0.00;;;;;;;;;;1726072;28;20269;-72
2022/12/27 05:41:09;;;;;;;0.10;0.10;;;;;;;;;;1725349;28;20216;-72
2022/12/27 05:42:00;;;;;;;0.00;0.00;;;;;;;;;;1725805;28;20645;-72
2022/12/27 05:42:51;;;;;;;0.00;0.00;;;;;;;;;;1720440;28;20635;-72
2022/12/27 05:43:43;;;;;;;0.00;0.00;;;;;;;;;;1725349;28;20196;-72
2022/12/27 05:44:34;;;;;;;0.13;0.13;;;;;;;;;;1725284;28;20208;-72
2022/12/27 05:45:26;;;;;;;0.10;0.10;;;;;;;;;;1720641;28;20267;-73
2022/12/27 05:46:19;;;;;;;0.10;0.10;;;;;;;;;;1720634;28;20220;-73
2022/12/27 05:47:11;;;;;;;0.05;0.05;;;;;;;;;;1724893;28;20251;-73
2022/12/27 05:48:02;;;;;;;0.00;0.00;;;;;;;;;;1721781;28;20286;-73
2022/12/27 05:48:54;;;;;;;0.15;0.15;;;;;;;;;;1724479;28;20204;-73
2022/12/27 05:49:45;;;;;;;0.03;0.03;;;;;;;;;;1721049;28;20256;-73
2022/12/27 05:50:37;;;;;;;0.00;0.00;;;;;;;;;;1721082;28;20201;-73
2022/12/27 05:51:29;;;;;;;0.10;0.10;;;;;;;;;;1726492;28;20204;-73
2022/12/27 05:52:21;;;;;;;0.00;0.00;;;;;;;;;;1726358;28;20674;-72
2022/12/27 05:53:12;;;;;;;0.00;0.00;;;;;;;;;;1722215;28;20213;-72
2022/12/27 05:54:04;;;;;;;0.00;0.00;;;;;;;;;;1723463;28;20213;-72
2022/12/27 05:54:55;;;;;;;0.00;0.00;;;;;;;;;;1726414;28;20208;-72
2022/12/27 05:55:54;;;;;;;0.00;0.00;;;;;;;;;;1725552;28;20200;-72
2022/12/27 05:56:45;;;;;;;0.10;0.10;;;;;;;;;;1725830;28;20257;-72
2022/12/27 05:57:37;;;;;;;0.00;0.00;;;;;;;;;;1721336;28;20212;-72
2022/12/27 05:58:28;;;;;;;0.20;0.20;;;;;;;;;;1723986;28;20216;-72
2022/12/27 05:59:20;;;;;;;0.00;0.00;;;;;;;;;;1722346;28;20217;-72
2022/12/27 06:00:11;;;;;;;0.00;0.00;;;;;;;;;;1721543;28;20589;-72
2022/12/27 06:01:07;;;;;;;0.00;0.00;;;;;;;;;;1723223;28;20577;-72
2022/12/27 06:01:58;;;;;;;0.05;0.05;;;;;;;;;;1726715;28;20327;-72
2022/12/27 06:02:50;;;;;;;0.03;0.03;;;;;;;;;;1723970;28;20601;-72
2022/12/27 06:03:42;;;;;;;0.05;0.05;;;;;;;;;;1726107;28;20239;-72
2022/12/27 06:04:34;;;;;;;0.00;0.00;;;;;;;;;;1721135;28;20296;-72
2022/12/27 06:05:25;;;;;;;0.00;0.00;;;;;;;;;;1726853;28;20269;-72
2022/12/27 06:06:17;;;;;;;0.00;0.00;;;;;;;;;;1725883;28;20204;-72
2022/12/27 06:07:10;;;;;;;0.00;0.00;;;;;;;;;;1723456;28;20677;-72
2022/12/27 06:08:01;;;;;;;0.00;0.00;;;;;;;;;;1721666;28;20213;-72
2022/12/27 06:08:53;;;;;;;0.10;0.10;;;;;;;;;;1724236;28;20255;-72
2022/12/27 06:09:44;;;;;;;0.00;0.00;;;;;;;;;;1724967;28;20262;-72
2022/12/27 06:10:36;;;;;;;0.00;0.00;;;;;;;;;;1720215;28;20304;-72
2022/12/27 06:11:27;;;;;;;0.00;0.00;;;;;;;;;;1721840;28;20205;-72
2022/12/27 06:12:19;;;;;;;0.10;0.10;;;;;;;;;;1726002;28;20235;-72
2022/12/27 06:13:10;;;;;;;0.10;0.10;;;;;;;;;;1724039;28;20627;-72
2022/12/27 06:14:02;;;;;;;0.00;0.00;;;;;;;;;;1725008;28;20587;-72
2022/12/27 06:14:53;;;;;;;0.00;0.00;;;;;;;;;;1723135;28;20212;-72
2022/12/27 06:15:45;;;;;;;0.10;0.10;;;;;;;;;;1721108;28;20208;-72
2022/12/27 06:16:36;;;;;;;0.00;0.00;;;;;;;;;;1726349;28;20560;-72
2022/12/27 06:17:28;;;;;;;0.10;0.10;;;;;;;;;;1723794;28;20276;-72
2022/12/27 06:18:19;;;;;;;0.10;0.10;;;;;;;;;;1721193;28;20282;-72
2022/12/27 06:19:11;;;;;;;0.08;0.08;;;;;;;;;;1722208;28;20271;-72
2022/12/27 06:20:03;;;;;;;0.00;0.00;;;;;;;;;;1725857;28;20531;-72
2022/12/27 06:20:55;;;;;;;0.10;0.10;;;;;;;;;;1725228;28;20215;-73
2022/12/27 06:21:46;;;;;;;0.00;0.00;;;;;;;;;;1726011;28;20277;-73
2022/12/27 06:22:40;;;;;;;0.10;0.10;;;;;;;;;;1722442;28;20246;-73
2022/12/27 06:23:31;;;;;;;0.00;0.00;;;;;;;;;;1719710;28;20657;-73
2022/12/27 06:24:23;;;;;;;0.10;0.10;;;;;;;;;;1723637;28;20230;-73
2022/12/27 06:25:14;;;;;;;0.30;0.30;;;;;;;;;;1721493;28;20220;-73
2022/12/27 06:26:06;;;;;;;0.10;0.10;;;;;;;;;;1719532;28;20811;-74
2022/12/27 06:26:57;;;;;;;0.20;0.20;;;;;;;;;;1724429;28;20212;-74
2022/12/27 06:27:49;;;;;;;0.00;0.00;;;;;;;;;;1721350;28;20693;-74
2022/12/27 06:28:40;;;;;;;0.10;0.10;;;;;;;;;;1724955;28;20205;-74
2022/12/27 06:29:33;;;;;;;0.10;0.10;;;;;;;;;;1723668;28;20211;-74
2022/12/27 06:30:24;;;;;;;0.10;0.10;;;;;;;;;;1720672;28;20567;-74
2022/12/27 06:31:16;;;;;;;0.00;0.00;;;;;;;;;;1724655;28;20314;-73
2022/12/27 06:32:07;;;;;;;0.00;0.00;;;;;;;;;;1724876;28;20216;-74
2022/12/27 06:32:59;;;;;;;0.00;0.00;;;;;;;;;;1721113;28;20243;-74
2022/12/27 06:33:51;;;;;;;0.00;0.00;;;;;;;;;;1724603;28;20220;-74
2022/12/27 06:34:43;;;;;;;0.00;0.00;;;;;;;;;;1725160;28;20291;-73
2022/12/27 06:35:34;;;;;;;0.08;0.08;;;;;;;;;;1721726;28;20213;-73
2022/12/27 06:36:28;;;;;;;0.00;0.00;;;;;;;;;;1726216;28;20236;-74
2022/12/27 06:37:19;;;;;;;0.00;0.00;;;;;;;;;;1724903;28;20217;-73
2022/12/27 06:38:12;;;;;;;0.00;0.00;;;;;;;;;;1720849;28;21188;-73
2022/12/27 06:39:03;;;;;;;0.00;0.00;;;;;;;;;;1723483;28;20212;-74
2022/12/27 06:39:55;;;;;;;0.03;0.03;;;;;;;;;;1726120;28;20208;-74
2022/12/27 06:40:46;;;;;;;0.00;0.00;;;;;;;;;;1725353;28;20212;-74
2022/12/27 06:41:38;;;;;;;0.00;0.00;;;;;;;;;;1726198;28;20208;-74
2022/12/27 06:42:29;;;;;;;0.10;0.10;;;;;;;;;;1723106;28;20216;-74
2022/12/27 06:43:21;;;;;;;0.10;0.10;;;;;;;;;;1723980;28;20201;-74
2022/12/27 06:44:12;;;;;;;0.00;0.00;;;;;;;;;;1722825;28;20258;-73
2022/12/27 06:45:05;;;;;;;0.00;0.00;;;;;;;;;;1720833;28;20201;-74
2022/12/27 06:45:57;;;;;;;0.10;0.10;;;;;;;;;;1722016;28;20327;-73
2022/12/27 06:46:49;;;;;;;0.00;0.00;;;;;;;;;;1723220;28;20223;-72
2022/12/27 06:47:40;;;;;;;0.00;0.00;;;;;;;;;;1720380;28;20282;-72
2022/12/27 06:48:32;;;;;;;0.10;0.10;;;;;;;;;;1723945;28;20604;-72
2022/12/27 06:49:24;;;;;;;0.00;0.00;;;;;;;;;;1722659;28;20259;-72
2022/12/27 06:50:16;;;;;;;0.10;0.10;;;;;;;;;;1720545;28;20263;-72
2022/12/27 06:51:08;;;;;;;0.10;0.10;;;;;;;;;;1723082;28;20212;-72
2022/12/27 06:52:00;;;;;;;0.10;0.10;;;;;;;;;;1725979;28;20200;-72
2022/12/27 06:52:51;;;;;;;0.10;0.10;;;;;;;;;;1721737;28;20620;-72
2022/12/27 06:53:44;;;;;;;0.10;0.10;;;;;;;;;;1724852;28;20277;-72
2022/12/27 06:54:35;;;;;;;0.00;0.00;;;;;;;;;;1721483;28;20205;-72
2022/12/27 06:55:27;;;;;;;0.00;0.00;;;;;;;;;;1720206;28;20271;-72
2022/12/27 06:56:19;;;;;;;0.10;0.10;;;;;;;;;;1724609;28;20274;-73
2022/12/27 06:57:11;;;;;;;0.10;0.10;;;;;;;;;;1724751;28;20260;-73
2022/12/27 06:58:02;;;;;;;0.10;0.10;;;;;;;;;;1722574;28;20729;-73
2022/12/27 06:58:54;;;;;;;0.10;0.10;;;;;;;;;;1723952;28;20637;-73
2022/12/27 06:59:45;;;;;;;0.00;0.00;;;;;;;;;;1721794;28;20205;-73